Map

Track Data

SID SEASON NUMBER BASIN SUBBASIN NAME ISO_TIME NATURE LAT LON WMO_WIND WMO_PRES WMO_AGENCY TRACK_TYPE DIST2LAND LANDFALL IFLAG USA_AGENCY USA_ATCF_ID USA_LAT USA_LON USA_RECORD USA_STATUS USA_WIND USA_PRES USA_SSHS USA_R34_NE USA_R34_SE USA_R34_SW USA_R34_NW USA_R50_NE USA_R50_SE USA_R50_SW USA_R50_NW USA_R64_NE USA_R64_SE USA_R64_SW USA_R64_NW USA_POCI USA_ROCI USA_RMW USA_EYE TOKYO_LAT TOKYO_LON TOKYO_GRADE TOKYO_WIND TOKYO_PRES TOKYO_R50_DIR TOKYO_R50_LONG TOKYO_R50_SHORT TOKYO_R30_DIR TOKYO_R30_LONG TOKYO_R30_SHORT TOKYO_LAND CMA_LAT CMA_LON CMA_CAT CMA_WIND CMA_PRES HKO_LAT HKO_LON HKO_CAT HKO_WIND HKO_PRES NEWDELHI_LAT NEWDELHI_LON NEWDELHI_GRADE NEWDELHI_WIND NEWDELHI_PRES NEWDELHI_CI NEWDELHI_DP NEWDELHI_POCI REUNION_LAT REUNION_LON REUNION_TYPE REUNION_WIND REUNION_PRES REUNION_TNUM REUNION_CI REUNION_RMW REUNION_R34_NE REUNION_R34_SE REUNION_R34_SW REUNION_R34_NW REUNION_R50_NE REUNION_R50_SE REUNION_R50_SW REUNION_R50_NW REUNION_R64_NE REUNION_R64_SE REUNION_R64_SW REUNION_R64_NW BOM_LAT BOM_LON BOM_TYPE BOM_WIND BOM_PRES BOM_TNUM BOM_CI BOM_RMW BOM_R34_NE BOM_R34_SE BOM_R34_SW BOM_R34_NW BOM_R50_NE BOM_R50_SE BOM_R50_SW BOM_R50_NW BOM_R64_NE BOM_R64_SE BOM_R64_SW BOM_R64_NW BOM_ROCI BOM_POCI BOM_EYE BOM_POS_METHOD BOM_PRES_METHOD NADI_LAT NADI_LON NADI_CAT NADI_WIND NADI_PRES WELLINGTON_LAT WELLINGTON_LON WELLINGTON_WIND WELLINGTON_PRES DS824_LAT DS824_LON DS824_STAGE DS824_WIND DS824_PRES TD9636_LAT TD9636_LON TD9636_STAGE TD9636_WIND TD9636_PRES TD9635_LAT TD9635_LON TD9635_WIND TD9635_PRES TD9635_ROCI NEUMANN_LAT NEUMANN_LON NEUMANN_CLASS NEUMANN_WIND NEUMANN_PRES MLC_LAT MLC_LON MLC_CLASS MLC_WIND MLC_PRES USA_GUST BOM_GUST BOM_GUST_PER REUNION_GUST REUNION_GUST_PER USA_SEAHGT USA_SEARAD_NE USA_SEARAD_SE USA_SEARAD_SW USA_SEARAD_NW STORM_SPEED STORM_DIR
1988245N20269 1988 67 NA GM DEBBY 1988-08-31 18:00:00 TS 20.1000 -91.0000 25 1006 hurdat_atl main 52 52 O_____________ hurdat_atl AL041988 20.1000 -91.0000 TD 25 1006 -1 7 279
1988245N20269 1988 67 NA GM DEBBY 1988-08-31 21:00:00 TS 20.1501 -91.3500 main 83 83 P_____________ AL041988 20.1501 -91.3500 TD 25 1005 -1 7 279
1988245N20269 1988 67 NA GM DEBBY 1988-09-01 00:00:00 TS 20.2000 -91.7000 25 1005 hurdat_atl main 118 118 O_____________ hurdat_atl AL041988 20.2000 -91.7000 TD 25 1005 -1 7 279
1988245N20269 1988 67 NA GM DEBBY 1988-09-01 03:00:00 TS 20.2499 -92.0500 main 156 156 P_____________ AL041988 20.2499 -92.0500 TD 25 1005 -1 7 279
1988245N20269 1988 67 NA GM DEBBY 1988-09-01 06:00:00 TS 20.3000 -92.4000 25 1005 hurdat_atl main 182 182 O_____________ hurdat_atl AL041988 20.3000 -92.4000 TD 25 1005 -1 7 279
1988245N20269 1988 67 NA GM DEBBY 1988-09-01 09:00:00 TS 20.3499 -92.7500 main 190 190 P_____________ AL041988 20.3499 -92.7500 TD 25 1004 -1 7 279
1988245N20269 1988 67 NA GM DEBBY 1988-09-01 12:00:00 TS 20.4000 -93.1000 25 1004 hurdat_atl main 205 205 O_____________ hurdat_atl AL041988 20.4000 -93.1000 TD 25 1004 -1 7 279
1988245N20269 1988 67 NA GM DEBBY 1988-09-01 15:00:00 TS 20.4499 -93.4500 main 218 218 P_____________ AL041988 20.4499 -93.4500 TD 27 1003 -1 7 279
1988245N20269 1988 67 NA GM DEBBY 1988-09-01 18:00:00 TS 20.5000 -93.8000 30 1003 hurdat_atl main 241 231 O_____________ hurdat_atl AL041988 20.5000 -93.8000 TD 30 1003 -1 7 279
1988245N20269 1988 67 NA GM DEBBY 1988-09-01 21:00:00 TS 20.5499 -94.1500 main 226 213 P_____________ AL041988 20.5499 -94.1500 TD 30 1003 -1 7 279
1988245N20269 1988 67 NA GM DEBBY 1988-09-02 00:00:00 TS 20.6000 -94.5000 30 1003 hurdat_atl main 213 184 O_____________ hurdat_atl AL041988 20.6000 -94.5000 TD 30 1003 -1 7 279
1988245N20269 1988 67 NA GM DEBBY 1988-09-02 03:00:00 TS 20.6499 -94.8500 main 174 153 P_____________ AL041988 20.6499 -94.8500 TD 35 1002 0 7 279
1988245N20269 1988 67 NA GM DEBBY 1988-09-02 06:00:00 TS 20.7000 -95.2000 40 1001 hurdat_atl main 153 129 O_____________ hurdat_atl AL041988 20.7000 -95.2000 TS 40 1001 0 7 279
1988245N20269 1988 67 NA GM DEBBY 1988-09-02 09:00:00 TS 20.7574 -95.5500 main 137 106 P_____________ AL041988 20.7574 -95.5500 TS 45 999 0 7 279
1988245N20269 1988 67 NA GM DEBBY 1988-09-02 12:00:00 TS 20.8000 -95.9000 50 998 hurdat_atl main 106 83 O_____________ hurdat_atl AL041988 20.8000 -95.9000 TS 50 998 0 7 275
1988245N20269 1988 67 NA GM DEBBY 1988-09-02 15:00:00 TS 20.8149 -96.2500 main 76 53 P_____________ AL041988 20.8149 -96.2500 TS 57 995 0 7 270
1988245N20269 1988 67 NA GM DEBBY 1988-09-02 18:00:00 TS 20.8000 -96.6000 65 992 hurdat_atl main 53 30 O_____________ hurdat_atl AL041988 20.8000 -96.6000 HU 65 992 1 6 266
1988245N20269 1988 67 NA GM DEBBY 1988-09-02 21:00:00 TS 20.7649 -96.9425 main 30 0 P_____________ AL041988 20.7649 -96.9425 HU 65 989 1 7 261
1988245N20269 1988 67 NA NA DEBBY 1988-09-03 00:00:00 TS 20.7000 -97.3000 65 987 hurdat_atl main 0 0 O_____________ hurdat_atl AL041988 20.7000 -97.3000 L HU 65 987 1 7 257
1988245N20269 1988 67 NA NA DEBBY 1988-09-03 03:00:00 TS 20.6075 -97.6925 main 0 0 P_____________ AL041988 20.6075 -97.6925 HU 57 991 0 8 255
1988245N20269 1988 67 NA NA DEBBY 1988-09-03 06:00:00 TS 20.5000 -98.1000 50 995 hurdat_atl main 0 0 O_____________ hurdat_atl AL041988 20.5000 -98.1000 TS 50 995 0 8 255
1988245N20269 1988 67 NA NA DEBBY 1988-09-03 09:00:00 TS 20.4074 -98.4924 main 0 0 P_____________ AL041988 20.4074 -98.4924 TS 42 996 0 8 255
1988245N20269 1988 67 NA NA DEBBY 1988-09-03 12:00:00 TS 20.3000 -98.9000 35 998 hurdat_atl main 0 0 O_____________ hurdat_atl AL041988 20.3000 -98.9000 TS 35 998 0 8 252
1988245N20269 1988 67 NA NA DEBBY 1988-09-03 15:00:00 TS 20.1499 -99.3426 main 0 0 P_____________ AL041988 20.1499 -99.3426 TS 32 998 -1 9 250
1988245N20269 1988 67 NA NA DEBBY 1988-09-03 18:00:00 TS 20.0000 -99.8000 30 999 hurdat_atl main 0 0 O_____________ hurdat_atl AL041988 20.0000 -99.8000 TD 30 999 -1 9 253
1988245N20269 1988 67 NA NA DEBBY 1988-09-03 21:00:00 TS 19.8924 -100.250 main 0 0 P_____________ AL041988 19.8924 -100.250 TD 30 999 -1 9 257
1988245N20269 1988 67 NA NA DEBBY 1988-09-04 00:00:00 TS 19.8000 -100.700 30 1000 hurdat_atl main 0 0 O_____________ hurdat_atl AL041988 19.8000 -100.700 TD 30 1000 -1 9 257
1988245N20269 1988 67 NA NA DEBBY 1988-09-04 03:00:00 TS 19.6924 -101.150 main 0 0 P_____________ AL041988 19.6924 -101.150 TD 30 1000 -1 9 257
1988245N20269 1988 67 NA NA DEBBY 1988-09-04 06:00:00 TS 19.6000 -101.600 30 1000 hurdat_atl main 0 0 O_____________ hurdat_atl AL041988 19.6000 -101.600 TD 30 1000 -1 9 260
1988245N20269 1988 67 NA NA DEBBY 1988-09-04 09:00:00 TS 19.5424 -102.050 main 0 0 P_____________ AL041988 19.5424 -102.050 TD 30 1000 -1 9 263
1988245N20269 1988 67 NA NA DEBBY 1988-09-04 12:00:00 TS 19.5000 -102.500 30 1000 hurdat_atl main 0 0 O_____________ hurdat_atl AL041988 19.5000 -102.500 TD 30 1000 -1 9 263
1988245N20269 1988 67 NA NA DEBBY 1988-09-04 15:00:00 TS 19.4349 -102.950 main 0 0 P_____________ AL041988 19.4349 -102.950 TD 30 1000 -1 9 263
1988245N20269 1988 67 NA NA DEBBY 1988-09-04 18:00:00 TS 19.4000 -103.400 30 1001 hurdat_atl main 0 0 O_____________ hurdat_atl AL041988 19.4000 -103.400 TD 30 1001 -1 9 270
1988245N20269 1988 67 NA NA DEBBY 1988-09-04 21:00:00 TS 19.4349 -103.857 main 0 0 P_____________ AL041988 19.4349 -103.857 TD 30 1001 -1 9 277
1988245N20269 1988 67 NA NA DEBBY 1988-09-05 00:00:00 TS 19.5000 -104.300 30 1001 hurdat_atl main 0 0 O_____________ hurdat_atl AL041988 19.5000 -104.300 TD 30 1001 -1 8 277
1988245N20269 1988 67 NA NA DEBBY 1988-09-05 03:00:00 TS 19.5349 -104.708 main 0 0 P_____________ AL041988 19.5349 -104.708 TD 30 1001 -1 8 278
1988245N20269 1988 67 NA NA DEBBY 1988-09-05 06:00:00 TS 19.6000 -105.100 30 1002 hurdat_atl main 0 0 O_____________ hurdat_atl AL041988 19.6000 -105.100 TD 30 1002 -1 8 283
1988245N20269 1988 67 EP MM DEBBY 1988-09-05 09:00:00 TS 19.7125 -105.523 main 20 20 P_____________ AL041988 19.7125 -105.523 TD 30 1002 -1 8 292
1988245N20269 1988 67 EP MM DEBBY 1988-09-05 12:00:00 TS 19.9000 -105.900 30 1003 hurdat_atl main 43 43 O_____________ hurdat_atl AL041988 19.9000 -105.900 TD 30 1003 -1 8 307
1988245N20269 1988 67 EP MM DEBBY 1988-09-05 15:00:00 TS 20.1849 -106.180 main 56 53 P_____________ AL041988 20.1849 -106.180 TD 30 1003 -1 8 322
1988245N20269 1988 67 EP MM DEBBY 1988-09-05 18:00:00 TS 20.5000 -106.400 30 1004 hurdat_atl main 73 73 O_____________ hurdat_atl AL041988 20.5000 -106.400 TD 30 1004 -1 7 325
1988245N20269 1988 67 EP MM DEBBY 1988-09-05 21:00:00 TS 20.7575 -106.615 main 103 103 P_____________ AL041988 20.7575 -106.615 TD 30 1004 -1 6 323
1988245N20269 1988 67 EP MM DEBBY 1988-09-06 00:00:00 TS 21.0000 -106.800 30 1004 hurdat_atl main 132 132 O_____________ hurdat_atl AL041988 21.0000 -106.800 TD 30 1004 -1 6 327
1988245N20269 1988 67 EP MM DEBBY 1988-09-06 03:00:00 TS 21.2500 -106.958 main 161 159 P_____________ AL041988 21.2500 -106.958 TD 30 1004 -1 6 331
1988245N20269 1988 67 EP MM DEBBY 1988-09-06 06:00:00 TS 21.5000 -107.100 30 1005 hurdat_atl main 164 161 O_____________ hurdat_atl AL041988 21.5000 -107.100 TD 30 1005 -1 6 331
1988245N20269 1988 67 EP MM DEBBY 1988-09-06 09:00:00 TS 21.7500 -107.250 main 178 166 P_____________ AL041988 21.7500 -107.250 TD 27 1005 -1 6 331
1988245N20269 1988 67 EP MM DEBBY 1988-09-06 12:00:00 TS 22.0000 -107.400 25 1005 hurdat_atl main 166 158 O_____________ hurdat_atl AL041988 22.0000 -107.400 TD 25 1005 -1 6 331
1988245N20269 1988 67 EP MM DEBBY 1988-09-06 15:00:00 TS 22.2500 -107.550 main 166 152 P_____________ AL041988 22.2500 -107.550 TD 25 1005 -1 6 331
1988245N20269 1988 67 EP MM DEBBY 1988-09-06 18:00:00 TS 22.5000 -107.700 25 1006 hurdat_atl main 154 149 O_____________ hurdat_atl AL041988 22.5000 -107.700 TD 25 1006 -1 6 331
1988245N20269 1988 67 EP MM DEBBY 1988-09-06 21:00:00 TS 22.7500 -107.850 main 158 143 P_____________ AL041988 22.7500 -107.850 TD 25 1006 -1 6 331
1988245N20269 1988 67 EP MM DEBBY 1988-09-07 00:00:00 TS 23.0000 -108.000 25 1006 hurdat_atl main 143 132 O_____________ hurdat_atl AL041988 23.0000 -108.000 TD 25 1006 -1 6 331
1988245N20269 1988 67 EP MM DEBBY 1988-09-07 03:00:00 TS 23.2575 -108.158 main 122 112 P_____________ AL041988 23.2575 -108.158 TD 25 1006 -1 6 331
1988245N20269 1988 67 EP MM DEBBY 1988-09-07 06:00:00 TS 23.5000 -108.300 25 1007 hurdat_atl main 112 104 O_____________ hurdat_atl AL041988 23.5000 -108.300 TD 25 1007 -1 5 333
1988245N20269 1988 67 EP MM DEBBY 1988-09-07 09:00:00 TS 23.7150 -108.408 main 107 93 P_____________ AL041988 23.7150 -108.408 TD 25 1007 -1 4 336
1988245N20269 1988 67 EP MM DEBBY 1988-09-07 12:00:00 TS 23.9000 -108.500 25 1007 hurdat_atl main 93 82 O_____________ hurdat_atl AL041988 23.9000 -108.500 TD 25 1007 -1 4 333
1988245N20269 1988 67 EP MM DEBBY 1988-09-07 15:00:00 TS 24.0650 -108.600 main 82 82 P_____________ AL041988 24.0650 -108.600 TD 25 1007 -1 4 329
1988245N20269 1988 67 EP MM DEBBY 1988-09-07 18:00:00 TS 24.2000 -108.700 25 1007 hurdat_atl main 83 78 O_____________ hurdat_atl AL041988 24.2000 -108.700 TD 25 1007 -1 3 326
1988245N20269 1988 67 EP MM DEBBY 1988-09-07 21:00:00 TS 24.3300 -108.800 main 87 83 P_____________ AL041988 24.3300 -108.800 TD 25 1007 -1 3 318
1988245N20269 1988 67 EP MM DEBBY 1988-09-08 00:00:00 TS 24.4000 -108.900 25 1008 hurdat_atl main 93 92 O_____________ hurdat_atl AL041988 24.4000 -108.900 TD 25 1008 -1 2 283
1988245N20269 1988 67 EP MM DEBBY 1988-09-08 03:00:00 TS 24.3725 -109.000 main 92 78 P_____________ AL041988 24.3725 -109.000 TD 22 1008 -1 2 241
1988245N20269 1988 67 EP MM DEBBY 1988-09-08 06:00:00 TS 24.3000 -109.100 20 1008 hurdat_atl main 78 69 O_____________ hurdat_atl AL041988 24.3000 -109.100 TD 20 1008 -1 2 242
1988245N20269 1988 67 EP MM DEBBY 1988-09-08 09:00:00 TS 24.2575 -109.238 main 69 55 P_____________ AL041988 24.2575 -109.238 TD 20 1008 -1 2 241
1988245N20269 1988 67 EP MM DEBBY 1988-09-08 12:00:00 TS 24.2000 -109.300 20 1008 hurdat_atl main 55 51 O_____________ hurdat_atl AL041988 24.2000 -109.300 TD 20 1008 -1 2 164
1988245N20269 1988 67 EP MM DEBBY 1988-09-08 15:00:00 TS 24.1101 -109.200 main 60 60 P_____________ AL041988 24.1101 -109.200 TD 20 1008 -1 3 126
1988245N20269 1988 67 EP MM DEBBY 1988-09-08 18:00:00 TS 24.0000 -109.000 20 1008 hurdat_atl main 67 O_____________ hurdat_atl AL041988 24.0000 -109.000 TD 20 1008 -1 4 121

About IBTrACS Database

This database is a web-friendly format of International Best Track Archive for Climate Stewardship (IBTrACS), a global best track data archive curated by NOAA dating back to 1842.

Updated: 2021-10-25